sensor_id;sensor_type;location;lat;lon;timestamp;P1;durP1;ratioP1;P2;durP2;ratioP2
3995;SDS011;2012;49.794;9.722;2024-02-28T00:02:04;25.90;;;16.10;;
3995;SDS011;2012;49.794;9.722;2024-02-28T00:04:31;19.23;;;13.07;;
3995;SDS011;2012;49.794;9.722;2024-02-28T00:06:57;16.70;;;11.50;;
3995;SDS011;2012;49.794;9.722;2024-02-28T00:09:25;16.90;;;11.17;;
3995;SDS011;2012;49.794;9.722;2024-02-28T00:11:53;15.70;;;11.27;;
3995;SDS011;2012;49.794;9.722;2024-02-28T00:14:20;17.67;;;11.93;;
3995;SDS011;2012;49.794;9.722;2024-02-28T00:16:47;23.90;;;11.33;;
3995;SDS011;2012;49.794;9.722;2024-02-28T00:19:14;16.23;;;11.97;;
3995;SDS011;2012;49.794;9.722;2024-02-28T00:21:43;15.80;;;10.73;;
3995;SDS011;2012;49.794;9.722;2024-02-28T00:24:10;16.00;;;10.80;;
3995;SDS011;2012;49.794;9.722;2024-02-28T00:26:40;15.57;;;10.97;;
3995;SDS011;2012;49.794;9.722;2024-02-28T00:29:11;14.93;;;11.57;;
3995;SDS011;2012;49.794;9.722;2024-02-28T00:31:38;16.07;;;11.03;;
3995;SDS011;2012;49.794;9.722;2024-02-28T00:34:05;18.33;;;11.50;;
3995;SDS011;2012;49.794;9.722;2024-02-28T00:36:35;16.27;;;11.83;;
3995;SDS011;2012;49.794;9.722;2024-02-28T00:39:17;17.60;;;13.10;;
3995;SDS011;2012;49.794;9.722;2024-02-28T00:41:44;15.97;;;11.77;;
3995;SDS011;2012;49.794;9.722;2024-02-28T00:44:11;20.73;;;13.00;;
3995;SDS011;2012;49.794;9.722;2024-02-28T00:46:39;19.40;;;14.07;;
3995;SDS011;2012;49.794;9.722;2024-02-28T00:49:06;20.97;;;13.77;;
3995;SDS011;2012;49.794;9.722;2024-02-28T00:51:33;18.13;;;13.77;;
3995;SDS011;2012;49.794;9.722;2024-02-28T00:54:00;22.70;;;13.00;;
3995;SDS011;2012;49.794;9.722;2024-02-28T00:56:27;24.17;;;14.67;;
3995;SDS011;2012;49.794;9.722;2024-02-28T00:58:54;20.80;;;13.50;;
3995;SDS011;2012;49.794;9.722;2024-02-28T01:01:21;21.60;;;13.83;;
3995;SDS011;2012;49.794;9.722;2024-02-28T01:03:48;20.90;;;15.23;;
3995;SDS011;2012;49.794;9.722;2024-02-28T01:06:15;19.20;;;12.67;;
3995;SDS011;2012;49.794;9.722;2024-02-28T01:08:43;23.30;;;14.10;;
3995;SDS011;2012;49.794;9.722;2024-02-28T01:11:10;19.80;;;11.67;;
3995;SDS011;2012;49.794;9.722;2024-02-28T01:13:37;16.77;;;12.27;;
3995;SDS011;2012;49.794;9.722;2024-02-28T01:16:04;20.03;;;14.67;;
3995;SDS011;2012;49.794;9.722;2024-02-28T01:18:31;21.93;;;15.27;;
3995;SDS011;2012;49.794;9.722;2024-02-28T01:20:59;20.60;;;14.20;;
3995;SDS011;2012;49.794;9.722;2024-02-28T01:23:26;32.30;;;14.93;;
3995;SDS011;2012;49.794;9.722;2024-02-28T01:25:53;26.00;;;16.77;;
3995;SDS011;2012;49.794;9.722;2024-02-28T01:28:19;19.77;;;13.60;;
3995;SDS011;2012;49.794;9.722;2024-02-28T01:30:47;25.17;;;15.73;;
3995;SDS011;2012;49.794;9.722;2024-02-28T01:33:15;23.23;;;14.77;;
3995;SDS011;2012;49.794;9.722;2024-02-28T01:35:42;29.83;;;15.47;;
3995;SDS011;2012;49.794;9.722;2024-02-28T01:38:09;26.70;;;15.93;;
3995;SDS011;2012;49.794;9.722;2024-02-28T01:40:36;25.97;;;16.10;;
3995;SDS011;2012;49.794;9.722;2024-02-28T01:43:03;27.87;;;16.80;;
3995;SDS011;2012;49.794;9.722;2024-02-28T01:45:33;27.07;;;16.53;;
3995;SDS011;2012;49.794;9.722;2024-02-28T01:48:00;27.47;;;17.97;;
3995;SDS011;2012;49.794;9.722;2024-02-28T01:50:32;36.87;;;19.20;;
3995;SDS011;2012;49.794;9.722;2024-02-28T01:52:59;30.20;;;18.33;;
3995;SDS011;2012;49.794;9.722;2024-02-28T01:55:28;29.23;;;17.80;;
3995;SDS011;2012;49.794;9.722;2024-02-28T01:57:55;32.43;;;18.80;;
3995;SDS011;2012;49.794;9.722;2024-02-28T02:00:22;28.13;;;17.23;;
3995;SDS011;2012;49.794;9.722;2024-02-28T02:02:51;25.27;;;16.60;;
3995;SDS011;2012;49.794;9.722;2024-02-28T02:05:18;27.30;;;18.10;;
3995;SDS011;2012;49.794;9.722;2024-02-28T02:07:48;27.90;;;17.07;;
3995;SDS011;2012;49.794;9.722;2024-02-28T02:10:16;33.80;;;17.73;;
3995;SDS011;2012;49.794;9.722;2024-02-28T02:12:43;29.40;;;17.77;;
3995;SDS011;2012;49.794;9.722;2024-02-28T02:15:10;34.47;;;18.30;;
3995;SDS011;2012;49.794;9.722;2024-02-28T02:17:37;28.90;;;17.60;;
3995;SDS011;2012;49.794;9.722;2024-02-28T02:20:04;26.80;;;17.30;;
3995;SDS011;2012;49.794;9.722;2024-02-28T02:22:34;29.77;;;18.93;;
3995;SDS011;2012;49.794;9.722;2024-02-28T02:25:07;38.93;;;18.97;;
3995;SDS011;2012;49.794;9.722;2024-02-28T02:27:35;28.47;;;17.70;;
3995;SDS011;2012;49.794;9.722;2024-02-28T02:30:02;28.23;;;17.57;;
3995;SDS011;2012;49.794;9.722;2024-02-28T02:32:29;30.60;;;17.27;;
3995;SDS011;2012;49.794;9.722;2024-02-28T02:34:56;31.67;;;17.80;;
3995;SDS011;2012;49.794;9.722;2024-02-28T02:37:23;30.80;;;16.20;;
3995;SDS011;2012;49.794;9.722;2024-02-28T02:39:51;28.53;;;16.67;;
3995;SDS011;2012;49.794;9.722;2024-02-28T02:42:18;30.97;;;18.00;;
3995;SDS011;2012;49.794;9.722;2024-02-28T02:44:45;27.37;;;16.17;;
3995;SDS011;2012;49.794;9.722;2024-02-28T02:47:12;26.03;;;16.00;;
3995;SDS011;2012;49.794;9.722;2024-02-28T02:49:39;28.43;;;16.93;;
3995;SDS011;2012;49.794;9.722;2024-02-28T02:52:06;22.03;;;15.70;;
3995;SDS011;2012;49.794;9.722;2024-02-28T02:54:33;24.63;;;15.30;;
3995;SDS011;2012;49.794;9.722;2024-02-28T02:57:00;24.43;;;16.00;;
3995;SDS011;2012;49.794;9.722;2024-02-28T02:59:27;23.33;;;15.13;;
3995;SDS011;2012;49.794;9.722;2024-02-28T03:01:54;29.33;;;16.10;;
3995;SDS011;2012;49.794;9.722;2024-02-28T03:04:21;27.30;;;16.50;;
3995;SDS011;2012;49.794;9.722;2024-02-28T03:06:47;26.47;;;15.80;;
3995;SDS011;2012;49.794;9.722;2024-02-28T03:09:14;23.17;;;16.40;;
3995;SDS011;2012;49.794;9.722;2024-02-28T03:11:41;29.90;;;15.60;;
3995;SDS011;2012;49.794;9.722;2024-02-28T03:14:08;32.00;;;17.00;;
3995;SDS011;2012;49.794;9.722;2024-02-28T03:16:35;31.03;;;18.67;;
3995;SDS011;2012;49.794;9.722;2024-02-28T03:19:07;24.27;;;15.67;;
3995;SDS011;2012;49.794;9.722;2024-02-28T03:21:33;24.30;;;14.87;;
3995;SDS011;2012;49.794;9.722;2024-02-28T03:24:01;32.20;;;18.20;;
3995;SDS011;2012;49.794;9.722;2024-02-28T03:26:28;30.73;;;17.50;;
3995;SDS011;2012;49.794;9.722;2024-02-28T03:28:55;29.57;;;16.97;;
3995;SDS011;2012;49.794;9.722;2024-02-28T03:31:22;28.53;;;17.83;;
3995;SDS011;2012;49.794;9.722;2024-02-28T03:33:48;29.53;;;16.47;;
3995;SDS011;2012;49.794;9.722;2024-02-28T03:36:16;27.60;;;17.80;;
3995;SDS011;2012;49.794;9.722;2024-02-28T03:38:46;33.43;;;18.37;;
3995;SDS011;2012;49.794;9.722;2024-02-28T03:41:15;28.00;;;17.60;;
3995;SDS011;2012;49.794;9.722;2024-02-28T03:43:42;27.40;;;16.33;;
3995;SDS011;2012;49.794;9.722;2024-02-28T03:46:09;27.40;;;17.40;;
3995;SDS011;2012;49.794;9.722;2024-02-28T03:48:36;22.27;;;14.63;;
3995;SDS011;2012;49.794;9.722;2024-02-28T03:51:03;25.97;;;15.90;;
3995;SDS011;2012;49.794;9.722;2024-02-28T03:53:30;29.43;;;17.07;;
3995;SDS011;2012;49.794;9.722;2024-02-28T03:55:58;26.77;;;17.13;;
3995;SDS011;2012;49.794;9.722;2024-02-28T03:58:25;24.93;;;15.63;;
3995;SDS011;2012;49.794;9.722;2024-02-28T04:00:52;25.13;;;15.07;;
3995;SDS011;2012;49.794;9.722;2024-02-28T04:03:19;26.13;;;16.03;;
3995;SDS011;2012;49.794;9.722;2024-02-28T04:05:46;25.30;;;15.83;;
3995;SDS011;2012;49.794;9.722;2024-02-28T04:08:13;27.50;;;16.53;;
3995;SDS011;2012;49.794;9.722;2024-02-28T04:10:40;23.53;;;14.93;;
3995;SDS011;2012;49.794;9.722;2024-02-28T04:13:07;22.27;;;14.23;;
3995;SDS011;2012;49.794;9.722;2024-02-28T04:15:34;25.43;;;14.50;;
3995;SDS011;2012;49.794;9.722;2024-02-28T04:18:01;26.07;;;15.13;;
3995;SDS011;2012;49.794;9.722;2024-02-28T04:20:28;23.47;;;14.43;;
3995;SDS011;2012;49.794;9.722;2024-02-28T04:22:55;22.63;;;15.10;;
3995;SDS011;2012;49.794;9.722;2024-02-28T04:25:22;24.63;;;14.90;;
3995;SDS011;2012;49.794;9.722;2024-02-28T04:27:49;24.23;;;16.10;;
3995;SDS011;2012;49.794;9.722;2024-02-28T04:30:16;22.33;;;14.00;;
3995;SDS011;2012;49.794;9.722;2024-02-28T04:32:43;34.53;;;16.60;;
3995;SDS011;2012;49.794;9.722;2024-02-28T04:35:10;27.57;;;16.80;;
3995;SDS011;2012;49.794;9.722;2024-02-28T04:37:37;25.77;;;15.03;;
3995;SDS011;2012;49.794;9.722;2024-02-28T04:40:04;23.60;;;15.90;;
3995;SDS011;2012;49.794;9.722;2024-02-28T04:42:33;24.63;;;15.63;;
3995;SDS011;2012;49.794;9.722;2024-02-28T04:45:00;24.00;;;14.97;;
3995;SDS011;2012;49.794;9.722;2024-02-28T04:47:27;25.47;;;15.97;;
3995;SDS011;2012;49.794;9.722;2024-02-28T04:50:05;27.40;;;16.20;;
3995;SDS011;2012;49.794;9.722;2024-02-28T04:52:32;26.80;;;15.50;;
3995;SDS011;2012;49.794;9.722;2024-02-28T04:55:00;22.83;;;14.67;;
3995;SDS011;2012;49.794;9.722;2024-02-28T04:57:27;25.13;;;15.73;;
3995;SDS011;2012;49.794;9.722;2024-02-28T04:59:54;22.47;;;14.43;;
3995;SDS011;2012;49.794;9.722;2024-02-28T05:02:21;24.60;;;14.93;;
3995;SDS011;2012;49.794;9.722;2024-02-28T05:04:48;29.30;;;15.87;;
3995;SDS011;2012;49.794;9.722;2024-02-28T05:07:15;28.30;;;16.80;;
3995;SDS011;2012;49.794;9.722;2024-02-28T05:09:42;25.70;;;15.83;;
3995;SDS011;2012;49.794;9.722;2024-02-28T05:12:09;29.03;;;17.40;;
3995;SDS011;2012;49.794;9.722;2024-02-28T05:14:38;26.73;;;15.80;;
3995;SDS011;2012;49.794;9.722;2024-02-28T05:17:05;22.47;;;15.27;;
3995;SDS011;2012;49.794;9.722;2024-02-28T05:19:32;24.27;;;15.37;;
3995;SDS011;2012;49.794;9.722;2024-02-28T05:21:59;25.50;;;16.90;;
3995;SDS011;2012;49.794;9.722;2024-02-28T05:24:27;22.97;;;15.50;;
3995;SDS011;2012;49.794;9.722;2024-02-28T05:26:55;24.73;;;13.83;;
3995;SDS011;2012;49.794;9.722;2024-02-28T05:29:21;22.07;;;14.10;;
3995;SDS011;2012;49.794;9.722;2024-02-28T05:31:48;24.90;;;14.20;;
3995;SDS011;2012;49.794;9.722;2024-02-28T05:34:15;28.77;;;15.67;;
3995;SDS011;2012;49.794;9.722;2024-02-28T05:36:43;30.20;;;14.47;;
3995;SDS011;2012;49.794;9.722;2024-02-28T05:39:10;28.40;;;15.17;;
3995;SDS011;2012;49.794;9.722;2024-02-28T05:41:37;21.70;;;14.20;;
3995;SDS011;2012;49.794;9.722;2024-02-28T05:44:04;25.50;;;14.23;;
3995;SDS011;2012;49.794;9.722;2024-02-28T05:46:31;24.07;;;13.93;;
3995;SDS011;2012;49.794;9.722;2024-02-28T05:48:58;25.33;;;14.60;;
3995;SDS011;2012;49.794;9.722;2024-02-28T05:51:25;20.77;;;14.60;;
3995;SDS011;2012;49.794;9.722;2024-02-28T05:53:52;28.43;;;14.77;;
3995;SDS011;2012;49.794;9.722;2024-02-28T05:56:19;23.87;;;14.83;;
3995;SDS011;2012;49.794;9.722;2024-02-28T05:58:47;22.83;;;15.10;;
3995;SDS011;2012;49.794;9.722;2024-02-28T06:01:15;26.60;;;15.87;;
3995;SDS011;2012;49.794;9.722;2024-02-28T06:03:49;25.20;;;15.40;;
3995;SDS011;2012;49.794;9.722;2024-02-28T06:06:17;23.90;;;14.90;;
3995;SDS011;2012;49.794;9.722;2024-02-28T06:08:45;26.57;;;14.43;;
3995;SDS011;2012;49.794;9.722;2024-02-28T06:11:12;27.00;;;16.03;;
3995;SDS011;2012;49.794;9.722;2024-02-28T06:13:42;24.07;;;14.67;;
3995;SDS011;2012;49.794;9.722;2024-02-28T06:16:15;27.37;;;14.70;;
3995;SDS011;2012;49.794;9.722;2024-02-28T06:18:44;21.73;;;13.40;;
3995;SDS011;2012;49.794;9.722;2024-02-28T06:21:12;26.60;;;15.77;;
3995;SDS011;2012;49.794;9.722;2024-02-28T06:23:40;28.27;;;16.40;;
3995;SDS011;2012;49.794;9.722;2024-02-28T06:26:08;23.10;;;14.73;;
3995;SDS011;2012;49.794;9.722;2024-02-28T06:28:41;25.77;;;15.10;;
3995;SDS011;2012;49.794;9.722;2024-02-28T06:31:15;20.80;;;14.30;;
3995;SDS011;2012;49.794;9.722;2024-02-28T06:33:46;26.03;;;14.70;;
3995;SDS011;2012;49.794;9.722;2024-02-28T06:36:13;23.93;;;14.27;;
3995;SDS011;2012;49.794;9.722;2024-02-28T06:38:40;24.23;;;15.80;;
3995;SDS011;2012;49.794;9.722;2024-02-28T06:41:07;28.73;;;16.27;;
3995;SDS011;2012;49.794;9.722;2024-02-28T06:43:34;30.50;;;16.70;;
3995;SDS011;2012;49.794;9.722;2024-02-28T06:46:02;28.87;;;17.90;;
3995;SDS011;2012;49.794;9.722;2024-02-28T06:48:29;25.10;;;16.50;;
3995;SDS011;2012;49.794;9.722;2024-02-28T06:50:56;27.80;;;16.77;;
3995;SDS011;2012;49.794;9.722;2024-02-28T06:53:24;23.10;;;14.70;;
3995;SDS011;2012;49.794;9.722;2024-02-28T06:55:52;22.20;;;14.07;;
3995;SDS011;2012;49.794;9.722;2024-02-28T06:58:19;23.10;;;14.33;;
3995;SDS011;2012;49.794;9.722;2024-02-28T07:00:47;24.17;;;13.60;;
3995;SDS011;2012;49.794;9.722;2024-02-28T07:03:19;24.90;;;14.60;;
3995;SDS011;2012;49.794;9.722;2024-02-28T07:05:47;24.93;;;14.20;;
3995;SDS011;2012;49.794;9.722;2024-02-28T07:08:14;22.00;;;14.57;;
3995;SDS011;2012;49.794;9.722;2024-02-28T07:10:41;21.10;;;13.97;;
3995;SDS011;2012;49.794;9.722;2024-02-28T07:13:10;20.43;;;12.97;;
3995;SDS011;2012;49.794;9.722;2024-02-28T07:15:37;27.47;;;15.07;;
3995;SDS011;2012;49.794;9.722;2024-02-28T07:18:06;22.80;;;12.90;;
3995;SDS011;2012;49.794;9.722;2024-02-28T07:20:34;27.00;;;15.00;;
3995;SDS011;2012;49.794;9.722;2024-02-28T07:23:01;27.00;;;15.87;;
3995;SDS011;2012;49.794;9.722;2024-02-28T07:25:27;22.47;;;13.97;;
3995;SDS011;2012;49.794;9.722;2024-02-28T07:27:56;22.10;;;13.87;;
3995;SDS011;2012;49.794;9.722;2024-02-28T07:30:25;22.67;;;13.97;;
3995;SDS011;2012;49.794;9.722;2024-02-28T07:32:52;19.23;;;12.37;;
3995;SDS011;2012;49.794;9.722;2024-02-28T07:35:20;17.80;;;11.30;;
3995;SDS011;2012;49.794;9.722;2024-02-28T07:37:48;21.03;;;11.67;;
3995;SDS011;2012;49.794;9.722;2024-02-28T07:40:15;18.63;;;11.80;;
3995;SDS011;2012;49.794;9.722;2024-02-28T07:42:41;19.40;;;12.67;;
3995;SDS011;2012;49.794;9.722;2024-02-28T07:45:08;24.13;;;12.47;;
3995;SDS011;2012;49.794;9.722;2024-02-28T07:47:36;17.43;;;11.43;;
3995;SDS011;2012;49.794;9.722;2024-02-28T07:50:04;17.80;;;11.83;;
3995;SDS011;2012;49.794;9.722;2024-02-28T07:52:31;15.90;;;10.50;;
3995;SDS011;2012;49.794;9.722;2024-02-28T07:55:01;20.73;;;12.90;;
3995;SDS011;2012;49.794;9.722;2024-02-28T07:57:28;20.17;;;11.63;;
3995;SDS011;2012;49.794;9.722;2024-02-28T07:59:55;25.20;;;11.77;;
3995;SDS011;2012;49.794;9.722;2024-02-28T08:02:22;17.60;;;11.10;;
3995;SDS011;2012;49.794;9.722;2024-02-28T08:04:49;17.90;;;11.77;;
3995;SDS011;2012;49.794;9.722;2024-02-28T08:07:17;20.10;;;11.50;;
3995;SDS011;2012;49.794;9.722;2024-02-28T08:09:44;21.50;;;11.30;;
3995;SDS011;2012;49.794;9.722;2024-02-28T08:12:11;18.37;;;11.60;;
3995;SDS011;2012;49.794;9.722;2024-02-28T08:14:40;17.73;;;11.10;;
3995;SDS011;2012;49.794;9.722;2024-02-28T08:17:07;36.97;;;21.43;;
3995;SDS011;2012;49.794;9.722;2024-02-28T08:19:33;28.20;;;18.43;;
3995;SDS011;2012;49.794;9.722;2024-02-28T08:22:01;17.17;;;10.80;;
3995;SDS011;2012;49.794;9.722;2024-02-28T08:24:28;18.70;;;12.03;;
3995;SDS011;2012;49.794;9.722;2024-02-28T08:26:56;35.93;;;20.50;;
3995;SDS011;2012;49.794;9.722;2024-02-28T08:29:23;28.57;;;13.90;;
3995;SDS011;2012;49.794;9.722;2024-02-28T08:31:50;20.10;;;10.57;;
3995;SDS011;2012;49.794;9.722;2024-02-28T08:34:17;20.77;;;13.43;;
3995;SDS011;2012;49.794;9.722;2024-02-28T08:36:44;16.03;;;10.83;;
3995;SDS011;2012;49.794;9.722;2024-02-28T08:39:11;15.30;;;10.33;;
3995;SDS011;2012;49.794;9.722;2024-02-28T08:41:38;16.50;;;10.83;;
3995;SDS011;2012;49.794;9.722;2024-02-28T08:44:05;18.47;;;11.57;;
3995;SDS011;2012;49.794;9.722;2024-02-28T08:46:32;16.70;;;9.37;;
3995;SDS011;2012;49.794;9.722;2024-02-28T08:48:59;13.50;;;9.30;;
3995;SDS011;2012;49.794;9.722;2024-02-28T08:51:26;11.73;;;8.30;;
3995;SDS011;2012;49.794;9.722;2024-02-28T08:53:53;12.07;;;8.70;;
3995;SDS011;2012;49.794;9.722;2024-02-28T08:56:22;12.70;;;9.20;;
3995;SDS011;2012;49.794;9.722;2024-02-28T08:58:49;11.40;;;7.53;;
3995;SDS011;2012;49.794;9.722;2024-02-28T09:01:16;13.87;;;9.20;;
3995;SDS011;2012;49.794;9.722;2024-02-28T09:03:43;12.90;;;8.10;;
3995;SDS011;2012;49.794;9.722;2024-02-28T09:06:10;15.20;;;9.03;;
3995;SDS011;2012;49.794;9.722;2024-02-28T09:08:37;12.40;;;9.70;;
3995;SDS011;2012;49.794;9.722;2024-02-28T09:11:04;14.73;;;8.10;;
3995;SDS011;2012;49.794;9.722;2024-02-28T09:13:32;12.37;;;9.07;;
3995;SDS011;2012;49.794;9.722;2024-02-28T09:15:59;15.80;;;8.60;;
3995;SDS011;2012;49.794;9.722;2024-02-28T09:18:26;16.50;;;10.07;;
3995;SDS011;2012;49.794;9.722;2024-02-28T09:20:53;12.83;;;8.20;;
3995;SDS011;2012;49.794;9.722;2024-02-28T09:23:20;16.23;;;8.70;;
3995;SDS011;2012;49.794;9.722;2024-02-28T09:25:49;12.10;;;8.00;;
3995;SDS011;2012;49.794;9.722;2024-02-28T09:28:16;12.70;;;8.60;;
3995;SDS011;2012;49.794;9.722;2024-02-28T09:30:43;16.60;;;8.50;;
3995;SDS011;2012;49.794;9.722;2024-02-28T09:33:18;14.80;;;9.20;;
3995;SDS011;2012;49.794;9.722;2024-02-28T09:35:46;13.30;;;8.50;;
3995;SDS011;2012;49.794;9.722;2024-02-28T09:38:13;13.43;;;8.67;;
3995;SDS011;2012;49.794;9.722;2024-02-28T09:40:40;14.07;;;8.20;;
3995;SDS011;2012;49.794;9.722;2024-02-28T09:43:11;15.17;;;9.33;;
3995;SDS011;2012;49.794;9.722;2024-02-28T09:46:04;10.80;;;8.33;;
3995;SDS011;2012;49.794;9.722;2024-02-28T09:48:32;12.63;;;9.23;;
3995;SDS011;2012;49.794;9.722;2024-02-28T09:51:00;15.60;;;9.63;;
3995;SDS011;2012;49.794;9.722;2024-02-28T09:53:27;14.57;;;9.13;;
3995;SDS011;2012;49.794;9.722;2024-02-28T09:55:54;14.80;;;8.90;;
3995;SDS011;2012;49.794;9.722;2024-02-28T09:58:20;12.53;;;9.10;;
3995;SDS011;2012;49.794;9.722;2024-02-28T10:00:47;13.10;;;9.13;;
3995;SDS011;2012;49.794;9.722;2024-02-28T10:03:18;16.30;;;9.13;;
3995;SDS011;2012;49.794;9.722;2024-02-28T10:05:46;17.87;;;9.33;;
3995;SDS011;2012;49.794;9.722;2024-02-28T10:08:13;15.20;;;9.10;;
3995;SDS011;2012;49.794;9.722;2024-02-28T10:10:47;15.03;;;8.57;;
3995;SDS011;2012;49.794;9.722;2024-02-28T10:13:15;14.27;;;9.30;;
3995;SDS011;2012;49.794;9.722;2024-02-28T10:15:43;13.87;;;8.70;;
3995;SDS011;2012;49.794;9.722;2024-02-28T10:18:10;11.10;;;8.03;;
3995;SDS011;2012;49.794;9.722;2024-02-28T10:20:37;9.20;;;6.70;;
3995;SDS011;2012;49.794;9.722;2024-02-28T10:23:05;12.03;;;7.63;;
3995;SDS011;2012;49.794;9.722;2024-02-28T10:25:32;11.20;;;7.37;;
3995;SDS011;2012;49.794;9.722;2024-02-28T10:28:10;10.40;;;7.60;;
3995;SDS011;2012;49.794;9.722;2024-02-28T10:30:41;11.60;;;7.20;;
3995;SDS011;2012;49.794;9.722;2024-02-28T10:33:13;9.53;;;6.90;;
3995;SDS011;2012;49.794;9.722;2024-02-28T10:35:41;12.20;;;8.00;;
3995;SDS011;2012;49.794;9.722;2024-02-28T10:38:12;13.10;;;8.50;;
3995;SDS011;2012;49.794;9.722;2024-02-28T10:40:40;12.23;;;7.70;;
3995;SDS011;2012;49.794;9.722;2024-02-28T10:43:08;15.70;;;8.97;;
3995;SDS011;2012;49.794;9.722;2024-02-28T10:45:36;11.07;;;7.67;;
3995;SDS011;2012;49.794;9.722;2024-02-28T10:48:27;10.50;;;6.77;;
3995;SDS011;2012;49.794;9.722;2024-02-28T10:50:54;11.37;;;7.00;;
3995;SDS011;2012;49.794;9.722;2024-02-28T10:53:22;8.80;;;7.03;;
3995;SDS011;2012;49.794;9.722;2024-02-28T10:56:02;11.03;;;7.00;;
3995;SDS011;2012;49.794;9.722;2024-02-28T10:58:35;11.47;;;6.77;;
3995;SDS011;2012;49.794;9.722;2024-02-28T11:01:03;11.57;;;6.37;;
3995;SDS011;2012;49.794;9.722;2024-02-28T11:03:32;11.63;;;6.67;;
3995;SDS011;2012;49.794;9.722;2024-02-28T11:05:59;10.40;;;6.40;;
3995;SDS011;2012;49.794;9.722;2024-02-28T11:08:27;10.80;;;6.87;;
3995;SDS011;2012;49.794;9.722;2024-02-28T11:11:03;10.20;;;7.03;;
3995;SDS011;2012;49.794;9.722;2024-02-28T11:13:30;8.13;;;6.43;;
3995;SDS011;2012;49.794;9.722;2024-02-28T11:16:06;10.67;;;6.50;;
3995;SDS011;2012;49.794;9.722;2024-02-28T11:18:34;9.40;;;7.13;;
3995;SDS011;2012;49.794;9.722;2024-02-28T11:21:01;11.70;;;6.87;;
3995;SDS011;2012;49.794;9.722;2024-02-28T11:23:37;11.27;;;7.40;;
3995;SDS011;2012;49.794;9.722;2024-02-28T11:26:04;12.80;;;6.97;;
3995;SDS011;2012;49.794;9.722;2024-02-28T11:28:31;9.80;;;7.10;;
3995;SDS011;2012;49.794;9.722;2024-02-28T11:30:58;10.90;;;6.57;;
3995;SDS011;2012;49.794;9.722;2024-02-28T11:33:25;7.37;;;5.87;;
3995;SDS011;2012;49.794;9.722;2024-02-28T11:35:56;7.70;;;6.47;;
3995;SDS011;2012;49.794;9.722;2024-02-28T11:38:26;13.10;;;6.80;;
3995;SDS011;2012;49.794;9.722;2024-02-28T11:40:53;8.73;;;6.30;;
3995;SDS011;2012;49.794;9.722;2024-02-28T11:43:23;10.60;;;7.07;;
3995;SDS011;2012;49.794;9.722;2024-02-28T11:45:52;14.27;;;7.10;;
3995;SDS011;2012;49.794;9.722;2024-02-28T11:48:21;11.63;;;7.77;;
3995;SDS011;2012;49.794;9.722;2024-02-28T11:50:50;10.43;;;7.40;;
3995;SDS011;2012;49.794;9.722;2024-02-28T11:53:17;10.63;;;7.13;;
3995;SDS011;2012;49.794;9.722;2024-02-28T11:55:45;10.13;;;6.70;;
3995;SDS011;2012;49.794;9.722;2024-02-28T11:58:14;7.73;;;6.10;;
3995;SDS011;2012;49.794;9.722;2024-02-28T12:00:48;9.23;;;6.33;;
3995;SDS011;2012;49.794;9.722;2024-02-28T12:03:25;7.50;;;5.67;;
3995;SDS011;2012;49.794;9.722;2024-02-28T12:05:54;8.40;;;5.60;;
3995;SDS011;2012;49.794;9.722;2024-02-28T12:08:22;7.40;;;6.00;;
3995;SDS011;2012;49.794;9.722;2024-02-28T12:10:53;9.37;;;6.57;;
3995;SDS011;2012;49.794;9.722;2024-02-28T12:13:22;8.27;;;5.60;;
3995;SDS011;2012;49.794;9.722;2024-02-28T12:15:49;13.77;;;7.07;;
3995;SDS011;2012;49.794;9.722;2024-02-28T12:18:16;6.90;;;5.50;;
3995;SDS011;2012;49.794;9.722;2024-02-28T12:20:43;8.73;;;6.53;;
3995;SDS011;2012;49.794;9.722;2024-02-28T12:23:12;8.47;;;5.60;;
3995;SDS011;2012;49.794;9.722;2024-02-28T12:25:39;7.47;;;5.90;;
3995;SDS011;2012;49.794;9.722;2024-02-28T12:28:06;6.60;;;4.90;;
3995;SDS011;2012;49.794;9.722;2024-02-28T12:30:40;6.83;;;4.80;;
3995;SDS011;2012;49.794;9.722;2024-02-28T12:33:11;7.40;;;4.90;;
3995;SDS011;2012;49.794;9.722;2024-02-28T12:35:38;6.43;;;5.13;;
3995;SDS011;2012;49.794;9.722;2024-02-28T12:38:05;7.63;;;4.63;;
3995;SDS011;2012;49.794;9.722;2024-02-28T12:40:32;7.77;;;5.63;;
3995;SDS011;2012;49.794;9.722;2024-02-28T12:42:59;7.03;;;5.10;;
3995;SDS011;2012;49.794;9.722;2024-02-28T12:45:26;6.47;;;4.93;;
3995;SDS011;2012;49.794;9.722;2024-02-28T12:47:53;8.90;;;5.70;;
3995;SDS011;2012;49.794;9.722;2024-02-28T12:50:23;7.83;;;5.20;;
3995;SDS011;2012;49.794;9.722;2024-02-28T12:52:50;12.60;;;4.60;;
3995;SDS011;2012;49.794;9.722;2024-02-28T12:55:20;6.30;;;3.83;;
3995;SDS011;2012;49.794;9.722;2024-02-28T12:57:47;4.63;;;4.10;;
3995;SDS011;2012;49.794;9.722;2024-02-28T13:00:15;7.03;;;3.93;;
3995;SDS011;2012;49.794;9.722;2024-02-28T13:02:42;5.60;;;4.23;;
3995;SDS011;2012;49.794;9.722;2024-02-28T13:05:11;5.97;;;3.97;;
3995;SDS011;2012;49.794;9.722;2024-02-28T13:07:39;4.83;;;3.70;;
3995;SDS011;2012;49.794;9.722;2024-02-28T13:10:07;4.50;;;3.57;;
3995;SDS011;2012;49.794;9.722;2024-02-28T13:12:35;5.23;;;3.70;;
3995;SDS011;2012;49.794;9.722;2024-02-28T13:15:02;11.13;;;4.37;;
3995;SDS011;2012;49.794;9.722;2024-02-28T13:17:29;5.43;;;4.17;;
3995;SDS011;2012;49.794;9.722;2024-02-28T13:19:57;8.37;;;4.20;;
3995;SDS011;2012;49.794;9.722;2024-02-28T13:22:24;6.97;;;3.80;;
3995;SDS011;2012;49.794;9.722;2024-02-28T13:24:51;9.50;;;4.27;;
3995;SDS011;2012;49.794;9.722;2024-02-28T13:27:18;4.40;;;2.97;;
3995;SDS011;2012;49.794;9.722;2024-02-28T13:29:45;3.83;;;3.43;;
3995;SDS011;2012;49.794;9.722;2024-02-28T13:32:12;3.63;;;3.00;;
3995;SDS011;2012;49.794;9.722;2024-02-28T13:34:39;4.43;;;3.80;;
3995;SDS011;2012;49.794;9.722;2024-02-28T13:37:06;10.50;;;6.53;;
3995;SDS011;2012;49.794;9.722;2024-02-28T13:39:33;4.93;;;3.20;;
3995;SDS011;2012;49.794;9.722;2024-02-28T13:42:01;3.40;;;2.90;;
3995;SDS011;2012;49.794;9.722;2024-02-28T13:44:31;3.43;;;2.80;;
3995;SDS011;2012;49.794;9.722;2024-02-28T13:46:58;5.10;;;3.03;;
3995;SDS011;2012;49.794;9.722;2024-02-28T13:49:25;3.60;;;3.23;;
3995;SDS011;2012;49.794;9.722;2024-02-28T13:51:52;3.63;;;3.10;;
3995;SDS011;2012;49.794;9.722;2024-02-28T13:54:20;3.97;;;2.90;;
3995;SDS011;2012;49.794;9.722;2024-02-28T13:56:47;5.13;;;3.30;;
3995;SDS011;2012;49.794;9.722;2024-02-28T13:59:13;3.40;;;3.10;;
3995;SDS011;2012;49.794;9.722;2024-02-28T14:01:40;4.33;;;2.87;;
3995;SDS011;2012;49.794;9.722;2024-02-28T14:04:08;2.80;;;2.60;;
3995;SDS011;2012;49.794;9.722;2024-02-28T14:06:35;4.90;;;3.23;;
3995;SDS011;2012;49.794;9.722;2024-02-28T14:09:02;4.07;;;2.90;;
3995;SDS011;2012;49.794;9.722;2024-02-28T14:11:31;2.63;;;2.43;;
3995;SDS011;2012;49.794;9.722;2024-02-28T14:13:58;3.03;;;2.73;;
3995;SDS011;2012;49.794;9.722;2024-02-28T14:16:25;4.33;;;2.63;;
3995;SDS011;2012;49.794;9.722;2024-02-28T14:18:52;9.07;;;3.03;;
3995;SDS011;2012;49.794;9.722;2024-02-28T14:21:19;4.10;;;3.00;;
3995;SDS011;2012;49.794;9.722;2024-02-28T14:23:46;2.67;;;2.37;;
3995;SDS011;2012;49.794;9.722;2024-02-28T14:26:14;2.90;;;2.43;;
3995;SDS011;2012;49.794;9.722;2024-02-28T14:28:41;4.80;;;2.77;;
3995;SDS011;2012;49.794;9.722;2024-02-28T14:31:08;2.17;;;1.97;;
3995;SDS011;2012;49.794;9.722;2024-02-28T14:33:35;2.30;;;2.10;;
3995;SDS011;2012;49.794;9.722;2024-02-28T14:36:03;2.83;;;2.40;;
3995;SDS011;2012;49.794;9.722;2024-02-28T14:38:33;3.00;;;2.43;;
3995;SDS011;2012;49.794;9.722;2024-02-28T14:40:59;3.80;;;2.27;;
3995;SDS011;2012;49.794;9.722;2024-02-28T14:43:26;5.37;;;2.20;;
3995;SDS011;2012;49.794;9.722;2024-02-28T14:45:56;2.67;;;2.17;;
3995;SDS011;2012;49.794;9.722;2024-02-28T14:48:23;2.33;;;2.13;;
3995;SDS011;2012;49.794;9.722;2024-02-28T14:50:50;3.67;;;2.53;;
3995;SDS011;2012;49.794;9.722;2024-02-28T14:53:17;3.00;;;1.83;;
3995;SDS011;2012;49.794;9.722;2024-02-28T14:55:46;3.10;;;2.40;;
3995;SDS011;2012;49.794;9.722;2024-02-28T14:58:13;2.63;;;2.20;;
3995;SDS011;2012;49.794;9.722;2024-02-28T15:00:40;2.17;;;1.97;;